UAL1351 KDEN-KXNA
Flight info
| Callsign | UAL1351 |
|---|---|
| Flight time | 1h 11m |
| Altitude | 35000 |
| Route | EXTAN7 SHAYK ICT HUNTO |
| Aircraft | A320/M-SDE3FGHIRWY/LB1 |
Departure
| Time | 2026-05-04 21:12 |
|---|---|
| Airport | Denver International Airport (KDEN) |
Arrival
| Time | 2026-05-04 22:24 |
|---|---|
| Airport | Northwest Arkansas National Airport (KXNA) |
| Time | Latitude | Longitude | Altitude | Speed | Heading |
|---|---|---|---|---|---|
| 2026-05-04 20:45 | 39.85930 | -104.68052 | 5377 ft | 0 kts | 180° |
| 2026-05-04 21:03 | 39.85955 | -104.68052 | 5377 ft | 4 kts | 182° |
| 2026-05-04 21:03 | 39.85982 | -104.68048 | 5377 ft | 4 kts | 194° |
| 2026-05-04 21:03 | 39.86006 | -104.68035 | 5379 ft | 4 kts | 223° |
| 2026-05-04 21:04 | 39.86016 | -104.68013 | 5378 ft | 1 kts | 270° |
| 2026-05-04 21:04 | 39.86016 | -104.68007 | 5378 ft | 0 kts | 270° |
| 2026-05-04 21:06 | 39.86016 | -104.68008 | 5378 ft | 0 kts | 270° |
| 2026-05-04 21:06 | 39.86016 | -104.68019 | 5378 ft | 3 kts | 270° |
| 2026-05-04 21:07 | 39.86016 | -104.68061 | 5376 ft | 7 kts | 270° |
| 2026-05-04 21:07 | 39.86017 | -104.68139 | 5379 ft | 10 kts | 272° |
| 2026-05-04 21:07 | 39.86028 | -104.68254 | 5376 ft | 16 kts | 274° |
| 2026-05-04 21:07 | 39.86031 | -104.68414 | 5372 ft | 17 kts | 271° |
| 2026-05-04 21:08 | 39.85976 | -104.68510 | 5368 ft | 14 kts | 185° |
| 2026-05-04 21:08 | 39.85875 | -104.68511 | 5370 ft | 15 kts | 180° |
| 2026-05-04 21:08 | 39.85767 | -104.68511 | 5370 ft | 16 kts | 180° |
| 2026-05-04 21:08 | 39.85651 | -104.68513 | 5371 ft | 17 kts | 181° |
| 2026-05-04 21:09 | 39.85531 | -104.68516 | 5372 ft | 17 kts | 181° |
| 2026-05-04 21:09 | 39.85419 | -104.68516 | 5375 ft | 16 kts | 180° |
| 2026-05-04 21:09 | 39.85301 | -104.68517 | 5377 ft | 17 kts | 180° |
| 2026-05-04 21:09 | 39.85204 | -104.68570 | 5373 ft | 17 kts | 253° |
| 2026-05-04 21:10 | 39.85199 | -104.68751 | 5365 ft | 22 kts | 269° |
| 2026-05-04 21:10 | 39.85198 | -104.68961 | 5358 ft | 23 kts | 269° |
| 2026-05-04 21:10 | 39.85196 | -104.69187 | 5347 ft | 27 kts | 270° |
| 2026-05-04 21:10 | 39.85201 | -104.69449 | 5337 ft | 28 kts | 271° |
| 2026-05-04 21:11 | 39.85201 | -104.69629 | 5338 ft | 13 kts | 270° |
| 2026-05-04 21:11 | 39.85233 | -104.69661 | 5338 ft | 0 kts | 358° |
| 2026-05-04 21:11 | 39.85290 | -104.69661 | 5338 ft | 32 kts | 360° |
| 2026-05-04 21:11 | 39.85759 | -104.69654 | 5340 ft | 98 kts | 0° |
| 2026-05-04 21:12 | 39.86632 | -104.69643 | 5335 ft | 150 kts | 1° |
| 2026-05-04 21:12 | 39.87806 | -104.69630 | 5361 ft | 187 kts | 0° |
| 2026-05-04 21:12 | 39.89102 | -104.69602 | 6078 ft | 184 kts | 1° |
| 2026-05-04 21:12 | 39.90337 | -104.69134 | 6785 ft | 189 kts | 30° |
| 2026-05-04 21:13 | 39.91240 | -104.67928 | 7428 ft | 188 kts | 62° |
| 2026-05-04 21:13 | 39.91565 | -104.66211 | 7686 ft | 210 kts | 93° |
| 2026-05-04 21:13 | 39.91133 | -104.64299 | 7852 ft | 232 kts | 117° |
| 2026-05-04 21:13 | 39.90360 | -104.62348 | 8038 ft | 257 kts | 118° |
| 2026-05-04 21:14 | 39.89491 | -104.60191 | 8298 ft | 280 kts | 118° |
| 2026-05-04 21:14 | 39.88550 | -104.57872 | 8763 ft | 293 kts | 118° |
| 2026-05-04 21:14 | 39.87583 | -104.55494 | 9432 ft | 300 kts | 118° |
| 2026-05-04 21:14 | 39.86617 | -104.53113 | 10101 ft | 304 kts | 118° |
| 2026-05-04 21:15 | 39.85597 | -104.50601 | 10415 ft | 323 kts | 118° |
| 2026-05-04 21:15 | 39.84504 | -104.47914 | 10632 ft | 342 kts | 118° |
| 2026-05-04 21:15 | 39.83370 | -104.45140 | 11212 ft | 348 kts | 118° |
| 2026-05-04 21:15 | 39.82241 | -104.42368 | 11855 ft | 352 kts | 117° |
| 2026-05-04 21:16 | 39.81359 | -104.39387 | 12495 ft | 356 kts | 105° |
| 2026-05-04 21:16 | 39.80969 | -104.36184 | 13087 ft | 360 kts | 92° |
| 2026-05-04 21:16 | 39.80876 | -104.32931 | 13676 ft | 365 kts | 96° |
| 2026-05-04 21:16 | 39.80525 | -104.29669 | 14257 ft | 367 kts | 98° |
| 2026-05-04 21:17 | 39.80145 | -104.26331 | 14826 ft | 370 kts | 99° |
| 2026-05-04 21:17 | 39.79769 | -104.23036 | 15347 ft | 374 kts | 99° |
| 2026-05-04 21:17 | 39.79382 | -104.19656 | 15871 ft | 378 kts | 99° |
| 2026-05-04 21:17 | 39.78998 | -104.16289 | 16381 ft | 381 kts | 99° |
| 2026-05-04 21:18 | 39.78610 | -104.12842 | 16927 ft | 385 kts | 98° |
| 2026-05-04 21:18 | 39.78242 | -104.09412 | 17433 ft | 389 kts | 98° |
| 2026-05-04 21:18 | 39.77875 | -104.05911 | 17970 ft | 393 kts | 98° |
| 2026-05-04 21:18 | 39.77502 | -104.02368 | 18487 ft | 396 kts | 98° |
| 2026-05-04 21:19 | 39.77122 | -103.98801 | 18994 ft | 399 kts | 98° |
| 2026-05-04 21:19 | 39.76731 | -103.95193 | 19521 ft | 402 kts | 99° |
| 2026-05-04 21:19 | 39.76338 | -103.91626 | 20029 ft | 406 kts | 99° |
| 2026-05-04 21:19 | 39.75908 | -103.87973 | 20554 ft | 409 kts | 100° |
| 2026-05-04 21:20 | 39.75449 | -103.84286 | 21047 ft | 413 kts | 100° |
| 2026-05-04 21:20 | 39.74977 | -103.80624 | 21507 ft | 416 kts | 100° |
| 2026-05-04 21:20 | 39.74490 | -103.76886 | 21970 ft | 420 kts | 100° |
| 2026-05-04 21:20 | 39.74034 | -103.73103 | 22422 ft | 424 kts | 98° |
| 2026-05-04 21:21 | 39.73682 | -103.69316 | 22869 ft | 428 kts | 96° |
| 2026-05-04 21:21 | 39.73393 | -103.65430 | 23287 ft | 433 kts | 95° |
| 2026-05-04 21:21 | 39.73135 | -103.61519 | 23656 ft | 437 kts | 95° |
| 2026-05-04 21:21 | 39.72875 | -103.57565 | 24001 ft | 441 kts | 95° |
| 2026-05-04 21:22 | 39.72599 | -103.53615 | 24349 ft | 444 kts | 96° |
| 2026-05-04 21:22 | 39.72297 | -103.49597 | 24683 ft | 448 kts | 96° |
| 2026-05-04 21:22 | 39.71975 | -103.45544 | 24998 ft | 453 kts | 96° |
| 2026-05-04 21:22 | 39.71638 | -103.41430 | 25312 ft | 457 kts | 96° |
| 2026-05-04 21:23 | 39.71299 | -103.37354 | 25635 ft | 461 kts | 96° |
| 2026-05-04 21:23 | 39.70954 | -103.33193 | 25961 ft | 464 kts | 96° |
| 2026-05-04 21:23 | 39.70605 | -103.28994 | 26261 ft | 468 kts | 96° |
| 2026-05-04 21:23 | 39.70253 | -103.24758 | 26552 ft | 472 kts | 96° |
| 2026-05-04 21:24 | 39.69902 | -103.20500 | 26848 ft | 476 kts | 96° |
| 2026-05-04 21:24 | 39.69554 | -103.16252 | 27148 ft | 479 kts | 96° |
| 2026-05-04 21:24 | 39.69198 | -103.11932 | 27465 ft | 483 kts | 96° |
| 2026-05-04 21:24 | 39.68835 | -103.07559 | 27760 ft | 487 kts | 96° |
| 2026-05-04 21:25 | 39.68471 | -103.03166 | 28059 ft | 490 kts | 96° |
| 2026-05-04 21:25 | 39.68105 | -102.98810 | 28352 ft | 493 kts | 96° |
| 2026-05-04 21:25 | 39.67727 | -102.94362 | 28646 ft | 497 kts | 96° |
| 2026-05-04 21:25 | 39.67343 | -102.89872 | 28931 ft | 500 kts | 96° |
| 2026-05-04 21:26 | 39.66955 | -102.85364 | 29226 ft | 503 kts | 96° |
| 2026-05-04 21:26 | 39.66569 | -102.80875 | 29513 ft | 506 kts | 96° |
| 2026-05-04 21:26 | 39.66173 | -102.76297 | 29790 ft | 509 kts | 96° |
| 2026-05-04 21:26 | 39.65775 | -102.71731 | 30174 ft | 508 kts | 96° |
| 2026-05-04 21:27 | 39.65372 | -102.67147 | 30505 ft | 509 kts | 96° |
| 2026-05-04 21:27 | 39.64974 | -102.62609 | 30788 ft | 511 kts | 96° |
| 2026-05-04 21:27 | 39.64573 | -102.58009 | 31074 ft | 513 kts | 96° |
| 2026-05-04 21:27 | 39.64173 | -102.53439 | 31358 ft | 515 kts | 96° |
| 2026-05-04 21:28 | 39.63763 | -102.48802 | 31648 ft | 517 kts | 96° |
| 2026-05-04 21:28 | 39.63348 | -102.44142 | 31949 ft | 519 kts | 96° |
| 2026-05-04 21:28 | 39.62929 | -102.39458 | 32261 ft | 521 kts | 96° |
| 2026-05-04 21:28 | 39.62513 | -102.34833 | 32628 ft | 521 kts | 96° |
| 2026-05-04 21:29 | 39.62088 | -102.30142 | 32925 ft | 523 kts | 96° |
| 2026-05-04 21:29 | 39.61663 | -102.25493 | 33201 ft | 525 kts | 96° |
| 2026-05-04 21:29 | 39.61230 | -102.20770 | 33476 ft | 528 kts | 96° |
| 2026-05-04 21:29 | 39.60793 | -102.15989 | 33674 ft | 531 kts | 96° |
| 2026-05-04 21:30 | 39.60362 | -102.11274 | 33891 ft | 533 kts | 96° |
| 2026-05-04 21:30 | 39.59919 | -102.06473 | 34116 ft | 535 kts | 96° |
| 2026-05-04 21:30 | 39.59471 | -102.01651 | 34362 ft | 537 kts | 96° |
| 2026-05-04 21:30 | 39.59042 | -101.96889 | 34596 ft | 538 kts | 96° |
| 2026-05-04 21:31 | 39.58272 | -101.87198 | 34722 ft | 543 kts | 95° |
| 2026-05-04 21:31 | 39.57907 | -101.82286 | 34716 ft | 544 kts | 95° |
| 2026-05-04 21:32 | 39.57163 | -101.72545 | 34717 ft | 545 kts | 95° |
| 2026-05-04 21:32 | 39.56371 | -101.62757 | 34698 ft | 544 kts | 95° |
| 2026-05-04 21:33 | 39.55565 | -101.53051 | 34690 ft | 543 kts | 95° |
| 2026-05-04 21:33 | 39.54448 | -101.43367 | 34675 ft | 543 kts | 107° |
| 2026-05-04 21:34 | 39.51637 | -101.34361 | 34671 ft | 535 kts | 124° |
| 2026-05-04 21:34 | 39.47927 | -101.26057 | 34651 ft | 535 kts | 124° |
| 2026-05-04 21:35 | 39.44212 | -101.17717 | 34719 ft | 536 kts | 124° |
| 2026-05-04 21:35 | 39.41111 | -101.10749 | 34732 ft | 536 kts | 124° |
| 2026-05-04 21:36 | 39.37393 | -101.02425 | 34677 ft | 537 kts | 125° |
| 2026-05-04 21:36 | 39.33625 | -100.94040 | 34709 ft | 537 kts | 125° |
| 2026-05-04 21:37 | 39.29884 | -100.85736 | 34720 ft | 537 kts | 125° |
| 2026-05-04 21:37 | 39.26133 | -100.77426 | 34710 ft | 538 kts | 125° |
| 2026-05-04 21:38 | 39.22350 | -100.69061 | 34723 ft | 538 kts | 125° |
| 2026-05-04 21:38 | 39.18585 | -100.60753 | 34718 ft | 539 kts | 125° |
| 2026-05-04 21:39 | 39.14775 | -100.52389 | 34719 ft | 539 kts | 125° |
| 2026-05-04 21:39 | 39.10990 | -100.44097 | 34662 ft | 539 kts | 125° |
| 2026-05-04 21:40 | 39.07192 | -100.35779 | 34635 ft | 541 kts | 126° |
| 2026-05-04 21:40 | 39.03355 | -100.27399 | 34643 ft | 542 kts | 126° |
| 2026-05-04 21:41 | 38.99524 | -100.19067 | 34663 ft | 543 kts | 125° |
| 2026-05-04 21:41 | 38.95682 | -100.10729 | 34675 ft | 543 kts | 125° |
| 2026-05-04 21:42 | 38.91799 | -100.02340 | 34648 ft | 543 kts | 126° |
| 2026-05-04 21:42 | 38.87956 | -99.94037 | 34647 ft | 545 kts | 126° |
| 2026-05-04 21:43 | 38.84062 | -99.85652 | 34644 ft | 546 kts | 126° |
| 2026-05-04 21:43 | 38.80176 | -99.77306 | 34674 ft | 547 kts | 126° |
| 2026-05-04 21:44 | 38.76270 | -99.68957 | 34679 ft | 547 kts | 126° |
| 2026-05-04 21:44 | 38.72369 | -99.60627 | 34642 ft | 547 kts | 126° |
| 2026-05-04 21:45 | 38.68426 | -99.52222 | 34650 ft | 548 kts | 126° |
| 2026-05-04 21:45 | 38.64501 | -99.43882 | 34672 ft | 550 kts | 126° |
| 2026-05-04 21:46 | 38.60557 | -99.35515 | 34678 ft | 550 kts | 126° |
| 2026-05-04 21:46 | 38.56590 | -99.27120 | 34679 ft | 550 kts | 126° |
| 2026-05-04 21:47 | 38.52636 | -99.18785 | 34647 ft | 550 kts | 126° |
| 2026-05-04 21:47 | 38.48665 | -99.10447 | 34655 ft | 551 kts | 126° |
| 2026-05-04 21:48 | 38.44665 | -99.02066 | 34687 ft | 552 kts | 126° |
| 2026-05-04 21:48 | 38.40670 | -98.93706 | 34699 ft | 552 kts | 126° |
| 2026-05-04 21:49 | 38.36674 | -98.85363 | 34701 ft | 553 kts | 126° |
| 2026-05-04 21:49 | 38.32670 | -98.77028 | 34687 ft | 553 kts | 126° |
| 2026-05-04 21:50 | 38.28653 | -98.68692 | 34673 ft | 554 kts | 126° |
| 2026-05-04 21:50 | 38.24602 | -98.60297 | 34661 ft | 554 kts | 126° |
| 2026-05-04 21:51 | 38.20569 | -98.51954 | 34653 ft | 555 kts | 126° |
| 2026-05-04 21:51 | 38.16514 | -98.43612 | 34662 ft | 555 kts | 126° |
| 2026-05-04 21:52 | 38.12459 | -98.35282 | 34660 ft | 555 kts | 126° |
| 2026-05-04 21:52 | 38.08384 | -98.26935 | 34686 ft | 555 kts | 126° |
| 2026-05-04 21:53 | 38.04325 | -98.18646 | 34676 ft | 554 kts | 126° |
| 2026-05-04 21:53 | 38.00237 | -98.10312 | 34684 ft | 554 kts | 126° |
| 2026-05-04 21:54 | 37.96176 | -98.02044 | 34652 ft | 553 kts | 126° |
| 2026-05-04 21:54 | 37.92107 | -97.93800 | 34626 ft | 553 kts | 126° |
| 2026-05-04 21:55 | 37.88008 | -97.85517 | 34628 ft | 553 kts | 126° |
| 2026-05-04 21:55 | 37.83921 | -97.77271 | 34627 ft | 554 kts | 126° |
| 2026-05-04 21:56 | 37.79835 | -97.69045 | 34644 ft | 554 kts | 126° |
| 2026-05-04 21:56 | 37.75743 | -97.60828 | 34648 ft | 554 kts | 126° |
| 2026-05-04 21:57 | 37.72151 | -97.52132 | 34679 ft | 557 kts | 118° |
| 2026-05-04 21:57 | 37.68807 | -97.43332 | 34664 ft | 558 kts | 118° |
| 2026-05-04 21:58 | 37.65415 | -97.34488 | 34668 ft | 560 kts | 118° |
| 2026-05-04 21:58 | 37.62030 | -97.25680 | 34670 ft | 561 kts | 118° |
| 2026-05-04 21:59 | 37.58610 | -97.16803 | 34677 ft | 561 kts | 118° |
| 2026-05-04 21:59 | 37.55209 | -97.07989 | 34677 ft | 562 kts | 118° |
| 2026-05-04 22:00 | 37.51767 | -96.99095 | 34684 ft | 562 kts | 118° |
| 2026-05-04 22:00 | 37.48343 | -96.90264 | 34668 ft | 563 kts | 119° |
| 2026-05-04 22:01 | 37.44905 | -96.81435 | 34691 ft | 564 kts | 118° |
| 2026-05-04 22:01 | 37.41431 | -96.72540 | 34689 ft | 565 kts | 118° |
| 2026-05-04 22:02 | 37.37971 | -96.63704 | 34694 ft | 566 kts | 119° |
| 2026-05-04 22:02 | 37.36222 | -96.59251 | 34495 ft | 566 kts | 119° |
| 2026-05-04 22:02 | 37.34475 | -96.54803 | 34259 ft | 565 kts | 119° |
| 2026-05-04 22:02 | 37.32732 | -96.50369 | 34030 ft | 564 kts | 119° |
| 2026-05-04 22:03 | 37.31014 | -96.46007 | 33825 ft | 563 kts | 118° |
| 2026-05-04 22:03 | 37.29273 | -96.41602 | 33522 ft | 560 kts | 119° |
| 2026-05-04 22:03 | 37.27535 | -96.37209 | 33259 ft | 561 kts | 118° |
| 2026-05-04 22:03 | 37.25799 | -96.32822 | 32998 ft | 559 kts | 118° |
| 2026-05-04 22:04 | 37.24065 | -96.28441 | 32736 ft | 557 kts | 118° |
| 2026-05-04 22:04 | 37.22356 | -96.24125 | 32480 ft | 555 kts | 118° |
| 2026-05-04 22:04 | 37.20639 | -96.19787 | 32229 ft | 553 kts | 118° |
| 2026-05-04 22:04 | 37.18923 | -96.15461 | 31975 ft | 550 kts | 118° |
| 2026-05-04 22:05 | 37.17240 | -96.11233 | 31398 ft | 548 kts | 118° |
| 2026-05-04 22:05 | 37.15526 | -96.06941 | 30724 ft | 547 kts | 117° |
| 2026-05-04 22:05 | 37.13824 | -96.02680 | 30022 ft | 545 kts | 117° |
| 2026-05-04 22:05 | 37.12124 | -95.98434 | 29345 ft | 540 kts | 117° |
| 2026-05-04 22:06 | 37.10466 | -95.94295 | 28782 ft | 532 kts | 117° |
| 2026-05-04 22:06 | 37.08803 | -95.90146 | 27933 ft | 524 kts | 117° |
| 2026-05-04 22:06 | 37.07181 | -95.86104 | 27205 ft | 513 kts | 117° |
| 2026-05-04 22:06 | 37.05612 | -95.82194 | 26651 ft | 500 kts | 117° |
| 2026-05-04 22:07 | 37.04059 | -95.78329 | 26026 ft | 489 kts | 118° |
| 2026-05-04 22:07 | 37.02557 | -95.74600 | 25436 ft | 479 kts | 118° |
| 2026-05-04 22:07 | 37.01066 | -95.70905 | 24858 ft | 472 kts | 118° |
| 2026-05-04 22:07 | 36.99587 | -95.67246 | 24294 ft | 470 kts | 118° |
| 2026-05-04 22:08 | 36.98109 | -95.63597 | 23746 ft | 468 kts | 118° |
| 2026-05-04 22:08 | 36.96659 | -95.60016 | 23198 ft | 465 kts | 118° |
| 2026-05-04 22:08 | 36.95191 | -95.56394 | 22631 ft | 461 kts | 118° |
| 2026-05-04 22:08 | 36.93761 | -95.52871 | 22110 ft | 456 kts | 118° |
| 2026-05-04 22:09 | 36.92329 | -95.49340 | 21594 ft | 453 kts | 118° |
| 2026-05-04 22:09 | 36.90904 | -95.45833 | 21064 ft | 449 kts | 118° |
| 2026-05-04 22:09 | 36.89485 | -95.42352 | 20518 ft | 447 kts | 119° |
| 2026-05-04 22:09 | 36.88096 | -95.38948 | 20084 ft | 441 kts | 119° |
| 2026-05-04 22:10 | 36.86704 | -95.35536 | 19394 ft | 435 kts | 119° |
| 2026-05-04 22:10 | 36.85343 | -95.32206 | 18876 ft | 426 kts | 119° |
| 2026-05-04 22:10 | 36.84023 | -95.28972 | 18363 ft | 418 kts | 119° |
| 2026-05-04 22:10 | 36.82723 | -95.25784 | 18204 ft | 406 kts | 119° |
| 2026-05-04 22:11 | 36.81439 | -95.22645 | 17771 ft | 402 kts | 119° |
| 2026-05-04 22:11 | 36.80171 | -95.19562 | 17322 ft | 397 kts | 119° |
| 2026-05-04 22:11 | 36.78922 | -95.16539 | 16797 ft | 396 kts | 119° |
| 2026-05-04 22:11 | 36.77657 | -95.13471 | 16258 ft | 394 kts | 119° |
| 2026-05-04 22:12 | 36.76405 | -95.10434 | 15728 ft | 393 kts | 119° |
| 2026-05-04 22:12 | 36.75153 | -95.07399 | 15191 ft | 392 kts | 119° |
| 2026-05-04 22:12 | 36.73923 | -95.04415 | 14664 ft | 390 kts | 118° |
| 2026-05-04 22:12 | 36.72687 | -95.01411 | 14133 ft | 389 kts | 119° |
| 2026-05-04 22:13 | 36.71451 | -94.98404 | 13602 ft | 388 kts | 119° |
| 2026-05-04 22:13 | 36.70232 | -94.95444 | 13045 ft | 386 kts | 118° |
| 2026-05-04 22:13 | 36.69008 | -94.92477 | 12516 ft | 382 kts | 119° |
| 2026-05-04 22:13 | 36.67784 | -94.89527 | 11978 ft | 379 kts | 120° |
| 2026-05-04 22:14 | 36.66583 | -94.86638 | 11461 ft | 376 kts | 120° |
| 2026-05-04 22:14 | 36.65382 | -94.83746 | 10949 ft | 374 kts | 120° |
| 2026-05-04 22:14 | 36.64200 | -94.80903 | 10439 ft | 372 kts | 120° |
| 2026-05-04 22:14 | 36.63028 | -94.78079 | 10249 ft | 360 kts | 121° |
| 2026-05-04 22:15 | 36.61894 | -94.75337 | 10114 ft | 347 kts | 121° |
| 2026-05-04 22:15 | 36.60807 | -94.72709 | 10001 ft | 336 kts | 121° |
| 2026-05-04 22:15 | 36.59746 | -94.70156 | 9891 ft | 325 kts | 121° |
| 2026-05-04 22:15 | 36.58731 | -94.67712 | 9484 ft | 318 kts | 121° |
| 2026-05-04 22:16 | 36.57715 | -94.65281 | 8864 ft | 315 kts | 122° |
| 2026-05-04 22:16 | 36.56708 | -94.62879 | 8271 ft | 311 kts | 122° |
| 2026-05-04 22:16 | 36.55729 | -94.60535 | 7727 ft | 306 kts | 122° |
| 2026-05-04 22:16 | 36.54753 | -94.58199 | 7186 ft | 301 kts | 122° |
| 2026-05-04 22:17 | 36.53788 | -94.55887 | 6664 ft | 296 kts | 122° |
| 2026-05-04 22:17 | 36.52859 | -94.53664 | 6177 ft | 291 kts | 123° |
| 2026-05-04 22:17 | 36.51926 | -94.51436 | 5601 ft | 287 kts | 123° |
| 2026-05-04 22:17 | 36.51025 | -94.49283 | 5535 ft | 274 kts | 123° |
| 2026-05-04 22:18 | 36.50157 | -94.47215 | 5444 ft | 264 kts | 124° |
| 2026-05-04 22:18 | 36.49334 | -94.45244 | 5330 ft | 255 kts | 124° |
| 2026-05-04 22:18 | 36.48536 | -94.43304 | 5216 ft | 248 kts | 124° |
| 2026-05-04 22:18 | 36.47758 | -94.41406 | 5109 ft | 242 kts | 124° |
| 2026-05-04 22:19 | 36.46852 | -94.39736 | 4885 ft | 229 kts | 142° |
| 2026-05-04 22:19 | 36.45589 | -94.38649 | 4638 ft | 214 kts | 162° |
| 2026-05-04 22:19 | 36.44209 | -94.38006 | 4353 ft | 209 kts | 165° |
| 2026-05-04 22:19 | 36.42888 | -94.37401 | 4107 ft | 199 kts | 165° |
| 2026-05-04 22:20 | 36.41629 | -94.36823 | 3874 ft | 186 kts | 165° |
| 2026-05-04 22:20 | 36.40458 | -94.36286 | 3620 ft | 174 kts | 165° |
| 2026-05-04 22:20 | 36.39364 | -94.35786 | 3395 ft | 161 kts | 165° |
| 2026-05-04 22:20 | 36.38339 | -94.35317 | 3202 ft | 152 kts | 165° |
| 2026-05-04 22:21 | 36.37367 | -94.34874 | 3005 ft | 148 kts | 165° |
| 2026-05-04 22:21 | 36.36411 | -94.34437 | 2805 ft | 141 kts | 164° |
| 2026-05-04 22:21 | 36.35535 | -94.34036 | 2627 ft | 131 kts | 164° |
| 2026-05-04 22:21 | 36.34685 | -94.33648 | 2471 ft | 129 kts | 166° |
| 2026-05-04 22:22 | 36.33858 | -94.33271 | 2297 ft | 126 kts | 167° |
| 2026-05-04 22:22 | 36.33042 | -94.32898 | 2135 ft | 126 kts | 167° |
| 2026-05-04 22:22 | 36.32215 | -94.32521 | 1943 ft | 126 kts | 166° |
| 2026-05-04 22:22 | 36.31392 | -94.32144 | 1786 ft | 128 kts | 166° |
| 2026-05-04 22:23 | 36.30546 | -94.31754 | 1591 ft | 133 kts | 165° |
| 2026-05-04 22:23 | 36.29675 | -94.31355 | 1383 ft | 133 kts | 165° |
| 2026-05-04 22:23 | 36.28817 | -94.30970 | 1283 ft | 122 kts | 161° |
| 2026-05-04 22:23 | 36.28222 | -94.30696 | 1280 ft | 51 kts | 160° |
| 2026-05-04 22:24 | 36.27987 | -94.30591 | 1277 ft | 14 kts | 159° |
| 2026-05-04 22:24 | 36.27920 | -94.30560 | 1278 ft | 20 kts | 159° |
| 2026-05-04 22:24 | 36.27764 | -94.30489 | 1279 ft | 26 kts | 160° |
| 2026-05-04 22:24 | 36.27601 | -94.30415 | 1282 ft | 24 kts | 160° |
| 2026-05-04 22:25 | 36.27536 | -94.30343 | 1282 ft | 19 kts | 95° |
| 2026-05-04 22:25 | 36.27581 | -94.30215 | 1281 ft | 14 kts | 37° |
| 2026-05-04 22:25 | 36.27669 | -94.30107 | 1281 ft | 15 kts | 71° |
| 2026-05-04 22:25 | 36.27709 | -94.29977 | 1279 ft | 16 kts | 68° |
| 2026-05-04 22:26 | 36.27745 | -94.29843 | 1281 ft | 14 kts | 74° |
| 2026-05-04 22:26 | 36.27715 | -94.29784 | 1279 ft | 13 kts | 168° |
| 2026-05-04 22:26 | 36.27652 | -94.29793 | 1282 ft | 8 kts | 165° |
| 2026-05-04 22:26 | 36.27633 | -94.29785 | 1279 ft | 0 kts | 160° |